This demonstration page uses our WeatherBlox Daily Observations layout. Learn more.

36.17497, -115.13722

Hourly Observations for January 19, 2018

Temp ( °F °C ) Dew Point ( °F °C ) Humidity (%) Winds ( mph kmh ) Pressure ( in mb ) Visibility ( mi km ) Precip ( " mm )
12:53 am 00:53 Clear 52 11.1 37 2.8 57 57 Calm 30.01 1016 10 16.0934 0 0
1:53 am 01:53 Clear 50 10 38 3.3 63 63 Calm 30 1016 10 16.0934 0 0
2:53 am 02:53 Clear 52 11.1 36 2.2 55 55 Calm 29.97 1015 10 16.0934 0 0
3:53 am 03:53 Clear 52 11.1 35 1.7 53 53 ENE 7 11 29.96 1014 10 16.0934 0 0
4:53 am 04:53 Clear 48 8.9 36 2.2 63 63 VRB 3 6 29.96 1015 10 16.0934 0 0
5:53 am 05:53 Clear 49 9.4 35 1.7 59 59 ENE 6 9 29.96 1014 10 16.0934 0 0
6:53 am 06:53 Sunny 50 10 34 1.1 54 54 NE 5 7 29.96 1015 10 16.0934 0 0
7:53 am 07:53 Sunny 54 12.2 34 1.1 47 47 ENE 6 9 29.96 1015 10 16.0934 0 0
8:53 am 08:53 Sunny 56 13.3 35 1.7 46 46 E 6 9 29.96 1015 10 16.0934 0 0
9:53 am 09:53 Sunny 59 15 35 1.7 41 41 ESE 8 13 29.97 1015 10 16.0934 0 0
10:53 am 10:53 Sunny 61 16.1 34 1.1 36 36 ESE 9 15 29.94 1014 10 16.0934 0 0
11:53 am 11:53 Sunny 67 19.4 34 1.1 30 30 SSE 8 13 29.88 1012 10 16.0934 0 0
12:28 pm 12:28 Sunny 70 21.1 32 0 25 25 SSW 22 35 29.74 1007 10 16.0934 0 0
12:53 pm 12:53 Sunny 70 21.1 32 0 25 25 SSW 18 30 29.83 1010 10 16.0934 0 0
1:53 pm 13:53 Sunny 70 21.1 31 -0.6 23 23 SSW 22 35 29.81 1010 10 16.0934 0 0
2:53 pm 14:53 Sunny 68 20 31 -0.6 25 25 SSW 14 22 29.8 1009 10 16.0934 0 0
3:53 pm 15:53 Sunny 66 18.9 32 0 28 28 SW 8 13 29.8 1009 10 16.0934 0 0
4:53 pm 16:53 Sunny 64 17.8 33 0.6 32 32 WSW 12 19 29.8 1009 10 16.0934 0 0
5:53 pm 17:53 Clear 63 17.2 34 1.1 34 34 SW 6 9 29.81 1010 10 16.0934 0 0
6:53 pm 18:53 Clear 62 16.7 35 1.7 37 37 WSW 8 13 29.82 1010 10 16.0934 0 0
7:53 pm 19:53 Clear 61 16.1 36 2.2 39 39 S 5 7 29.81 1010 10 16.0934 0 0
8:53 pm 20:53 Clear 61 16.1 37 2.8 41 41 S 8 13 29.8 1009 10 16.0934 0 0
9:53 pm 21:53 Clear 57 13.9 38 3.3 49 49 S 7 11 29.8 1009 10 16.0934 0 0
10:53 pm 22:53 Clear 59 15 39 3.9 48 48 SW 12 19 29.77 1008 10 16.0934 0 0
11:53 pm 23:53 Mostly Cloudy 57 13.9 39 3.9 51 51 W 7 11 29.76 1008 10 16.0934 0 0

Powered by AerisWeather